Olivos, Argentina
Current Conditions -  °F | °C
As of 3:00 PM on Wednesday 26 Nov 2014 (Local Time) from SABE Reporting Station
Scattered Clouds Scattered Clouds  
Wind Chill: 72°   Ceiling: Unl
Heat Index: 72°   Visibility: 6mi
Dew Point: 57°   Wind: 6mph
Humidity: 60%   Direction: 50°NE
Pressure: 29.94"   Gusts: NA
Location:  34.5°S, 58.47°W
Report Text: SABE 261800Z 05005KT 9999 FEW025 SCT20022/14 Q1014
Loading
Personal Weather Stations






























Interactive Weather Map New forecast layout! Learn more

10-Day Weather Forecast

Advertisements
Track Severe Weather on mobile